sensor_id;sensor_type;location;lat;lon;timestamp;temperature;humidity
10294;DHT22;5192;50.328;7.610;2023-04-01T00:00:32;10.00;31.40
10294;DHT22;5192;50.328;7.610;2023-04-01T00:03:00;10.10;32.00
10294;DHT22;5192;50.328;7.610;2023-04-01T00:05:27;9.90;31.50
10294;DHT22;5192;50.328;7.610;2023-04-01T00:07:57;9.90;31.70
10294;DHT22;5192;50.328;7.610;2023-04-01T00:10:24;9.90;32.00
10294;DHT22;5192;50.328;7.610;2023-04-01T00:12:50;9.90;32.10
10294;DHT22;5192;50.328;7.610;2023-04-01T00:15:17;9.80;32.50
10294;DHT22;5192;50.328;7.610;2023-04-01T00:17:45;10.00;33.50
10294;DHT22;5192;50.328;7.610;2023-04-01T00:20:12;9.80;33.50
10294;DHT22;5192;50.328;7.610;2023-04-01T00:22:41;9.80;33.80
10294;DHT22;5192;50.328;7.610;2023-04-01T00:25:09;9.80;33.70
10294;DHT22;5192;50.328;7.610;2023-04-01T00:27:36;9.80;31.90
10294;DHT22;5192;50.328;7.610;2023-04-01T00:30:03;9.80;31.30
10294;DHT22;5192;50.328;7.610;2023-04-01T00:32:29;9.80;31.30
10294;DHT22;5192;50.328;7.610;2023-04-01T00:34:57;9.80;32.40
10294;DHT22;5192;50.328;7.610;2023-04-01T00:37:27;9.80;31.30
10294;DHT22;5192;50.328;7.610;2023-04-01T00:39:55;9.80;31.60
10294;DHT22;5192;50.328;7.610;2023-04-01T00:42:24;9.80;30.80
10294;DHT22;5192;50.328;7.610;2023-04-01T00:44:54;9.90;30.60
10294;DHT22;5192;50.328;7.610;2023-04-01T00:47:23;9.90;30.50
10294;DHT22;5192;50.328;7.610;2023-04-01T00:49:52;9.90;29.70
10294;DHT22;5192;50.328;7.610;2023-04-01T00:52:23;9.90;30.30
10294;DHT22;5192;50.328;7.610;2023-04-01T00:54:55;9.90;29.20
10294;DHT22;5192;50.328;7.610;2023-04-01T00:57:32;9.90;28.40
10294;DHT22;5192;50.328;7.610;2023-04-01T01:00:00;10.00;29.00
10294;DHT22;5192;50.328;7.610;2023-04-01T01:02:26;9.90;28.50
10294;DHT22;5192;50.328;7.610;2023-04-01T01:04:54;10.00;28.80
10294;DHT22;5192;50.328;7.610;2023-04-01T01:10:26;10.00;28.30
10294;DHT22;5192;50.328;7.610;2023-04-01T01:13:47;10.00;28.00
10294;DHT22;5192;50.328;7.610;2023-04-01T01:16:27;10.00;29.50
10294;DHT22;5192;50.328;7.610;2023-04-01T01:22:23;9.90;30.00
10294;DHT22;5192;50.328;7.610;2023-04-01T01:25:16;9.80;29.90
10294;DHT22;5192;50.328;7.610;2023-04-01T01:28:15;9.80;29.50
10294;DHT22;5192;50.328;7.610;2023-04-01T01:31:12;10.00;29.40
10294;DHT22;5192;50.328;7.610;2023-04-01T01:34:31;9.80;29.90
10294;DHT22;5192;50.328;7.610;2023-04-01T01:37:16;9.90;28.70
10294;DHT22;5192;50.328;7.610;2023-04-01T01:39:44;9.80;29.20
10294;DHT22;5192;50.328;7.610;2023-04-01T01:42:18;9.80;29.80
10294;DHT22;5192;50.328;7.610;2023-04-01T01:44:46;9.80;28.70
10294;DHT22;5192;50.328;7.610;2023-04-01T01:47:15;9.80;30.10
10294;DHT22;5192;50.328;7.610;2023-04-01T01:49:46;9.80;29.10
10294;DHT22;5192;50.328;7.610;2023-04-01T01:52:13;9.80;28.10
10294;DHT22;5192;50.328;7.610;2023-04-01T01:54:53;9.80;29.00
10294;DHT22;5192;50.328;7.610;2023-04-01T01:57:25;9.80;28.50
10294;DHT22;5192;50.328;7.610;2023-04-01T01:59:56;9.80;28.90
10294;DHT22;5192;50.328;7.610;2023-04-01T02:02:28;9.80;28.60
10294;DHT22;5192;50.328;7.610;2023-04-01T02:05:00;9.80;28.30
10294;DHT22;5192;50.328;7.610;2023-04-01T02:07:35;9.80;28.70
10294;DHT22;5192;50.328;7.610;2023-04-01T02:10:03;9.80;27.90
10294;DHT22;5192;50.328;7.610;2023-04-01T02:12:30;9.80;28.50
10294;DHT22;5192;50.328;7.610;2023-04-01T02:15:12;9.80;28.90
10294;DHT22;5192;50.328;7.610;2023-04-01T02:17:46;9.70;28.80
10294;DHT22;5192;50.328;7.610;2023-04-01T02:20:20;9.70;28.80
10294;DHT22;5192;50.328;7.610;2023-04-01T02:22:54;9.70;29.20
10294;DHT22;5192;50.328;7.610;2023-04-01T02:25:33;9.70;29.10
10294;DHT22;5192;50.328;7.610;2023-04-01T02:28:02;9.70;28.80
10294;DHT22;5192;50.328;7.610;2023-04-01T02:30:31;9.70;29.60
10294;DHT22;5192;50.328;7.610;2023-04-01T02:33:03;9.70;29.00
10294;DHT22;5192;50.328;7.610;2023-04-01T02:35:30;9.70;29.10
10294;DHT22;5192;50.328;7.610;2023-04-01T02:38:03;9.70;29.60
10294;DHT22;5192;50.328;7.610;2023-04-01T02:40:41;9.70;29.80
10294;DHT22;5192;50.328;7.610;2023-04-01T02:43:08;9.70;30.10
10294;DHT22;5192;50.328;7.610;2023-04-01T02:45:35;9.70;30.90
10294;DHT22;5192;50.328;7.610;2023-04-01T02:48:04;9.70;30.00
10294;DHT22;5192;50.328;7.610;2023-04-01T02:50:33;9.70;30.40
10294;DHT22;5192;50.328;7.610;2023-04-01T02:53:03;9.70;30.30
10294;DHT22;5192;50.328;7.610;2023-04-01T02:55:30;9.60;30.60
10294;DHT22;5192;50.328;7.610;2023-04-01T02:57:56;9.70;30.30
10294;DHT22;5192;50.328;7.610;2023-04-01T03:00:25;9.60;30.30
10294;DHT22;5192;50.328;7.610;2023-04-01T03:02:51;9.70;30.20
10294;DHT22;5192;50.328;7.610;2023-04-01T03:05:20;9.70;30.40
10294;DHT22;5192;50.328;7.610;2023-04-01T03:07:47;9.60;30.30
10294;DHT22;5192;50.328;7.610;2023-04-01T03:10:13;9.60;30.60
10294;DHT22;5192;50.328;7.610;2023-04-01T03:12:41;9.60;29.90
10294;DHT22;5192;50.328;7.610;2023-04-01T03:15:11;9.60;31.10
10294;DHT22;5192;50.328;7.610;2023-04-01T03:17:41;9.60;30.40
10294;DHT22;5192;50.328;7.610;2023-04-01T03:20:11;9.60;30.30
10294;DHT22;5192;50.328;7.610;2023-04-01T03:22:38;9.60;29.90
10294;DHT22;5192;50.328;7.610;2023-04-01T03:25:06;9.60;29.60
10294;DHT22;5192;50.328;7.610;2023-04-01T03:27:34;9.60;29.60
10294;DHT22;5192;50.328;7.610;2023-04-01T03:30:07;9.60;29.00
10294;DHT22;5192;50.328;7.610;2023-04-01T03:32:34;9.60;29.30
10294;DHT22;5192;50.328;7.610;2023-04-01T03:35:02;9.70;28.70
10294;DHT22;5192;50.328;7.610;2023-04-01T03:37:30;9.80;29.00
10294;DHT22;5192;50.328;7.610;2023-04-01T03:39:57;9.60;29.60
10294;DHT22;5192;50.328;7.610;2023-04-01T03:42:23;9.60;28.90
10294;DHT22;5192;50.328;7.610;2023-04-01T03:44:50;9.60;29.10
10294;DHT22;5192;50.328;7.610;2023-04-01T03:47:16;9.70;29.40
10294;DHT22;5192;50.328;7.610;2023-04-01T03:49:43;9.60;29.40
10294;DHT22;5192;50.328;7.610;2023-04-01T03:52:14;9.60;29.50
10294;DHT22;5192;50.328;7.610;2023-04-01T03:54:41;9.60;29.30
10294;DHT22;5192;50.328;7.610;2023-04-01T03:57:08;9.60;28.70
10294;DHT22;5192;50.328;7.610;2023-04-01T03:59:34;9.60;28.90
10294;DHT22;5192;50.328;7.610;2023-04-01T04:02:02;9.60;29.20
10294;DHT22;5192;50.328;7.610;2023-04-01T04:04:30;9.60;28.60
10294;DHT22;5192;50.328;7.610;2023-04-01T04:06:56;9.60;29.10
10294;DHT22;5192;50.328;7.610;2023-04-01T04:09:23;9.60;29.20
10294;DHT22;5192;50.328;7.610;2023-04-01T04:11:51;9.60;29.50
10294;DHT22;5192;50.328;7.610;2023-04-01T04:14:18;9.50;30.00
10294;DHT22;5192;50.328;7.610;2023-04-01T04:16:45;9.50;29.70
10294;DHT22;5192;50.328;7.610;2023-04-01T04:19:12;9.60;30.50
10294;DHT22;5192;50.328;7.610;2023-04-01T04:21:44;9.50;29.30
10294;DHT22;5192;50.328;7.610;2023-04-01T04:24:12;9.50;29.60
10294;DHT22;5192;50.328;7.610;2023-04-01T04:26:38;9.50;29.40
10294;DHT22;5192;50.328;7.610;2023-04-01T04:29:06;9.50;29.80
10294;DHT22;5192;50.328;7.610;2023-04-01T04:31:32;9.50;29.70
10294;DHT22;5192;50.328;7.610;2023-04-01T04:34:01;9.60;30.30
10294;DHT22;5192;50.328;7.610;2023-04-01T04:36:29;9.40;29.90
10294;DHT22;5192;50.328;7.610;2023-04-01T04:38:56;9.40;30.20
10294;DHT22;5192;50.328;7.610;2023-04-01T04:41:24;9.40;30.50
10294;DHT22;5192;50.328;7.610;2023-04-01T04:43:56;9.40;29.60
10294;DHT22;5192;50.328;7.610;2023-04-01T04:46:24;9.50;30.00
10294;DHT22;5192;50.328;7.610;2023-04-01T04:48:51;9.50;29.70
10294;DHT22;5192;50.328;7.610;2023-04-01T04:51:23;9.50;29.40
10294;DHT22;5192;50.328;7.610;2023-04-01T04:53:50;9.50;29.30
10294;DHT22;5192;50.328;7.610;2023-04-01T04:56:20;9.50;30.00
10294;DHT22;5192;50.328;7.610;2023-04-01T04:58:48;9.40;30.10
10294;DHT22;5192;50.328;7.610;2023-04-01T05:01:17;9.50;30.30
10294;DHT22;5192;50.328;7.610;2023-04-01T05:03:45;9.50;29.30
10294;DHT22;5192;50.328;7.610;2023-04-01T05:06:14;9.50;29.70
10294;DHT22;5192;50.328;7.610;2023-04-01T05:08:42;9.50;30.30
10294;DHT22;5192;50.328;7.610;2023-04-01T05:11:20;9.50;30.20
10294;DHT22;5192;50.328;7.610;2023-04-01T05:13:48;9.50;30.20
10294;DHT22;5192;50.328;7.610;2023-04-01T05:16:18;9.40;30.20
10294;DHT22;5192;50.328;7.610;2023-04-01T05:18:46;9.40;31.10
10294;DHT22;5192;50.328;7.610;2023-04-01T05:21:15;9.40;31.60
10294;DHT22;5192;50.328;7.610;2023-04-01T05:23:44;9.40;31.40
10294;DHT22;5192;50.328;7.610;2023-04-01T05:26:13;9.40;31.80
10294;DHT22;5192;50.328;7.610;2023-04-01T05:28:39;9.40;32.50
10294;DHT22;5192;50.328;7.610;2023-04-01T05:31:07;9.40;33.00
10294;DHT22;5192;50.328;7.610;2023-04-01T05:33:33;9.40;32.80
10294;DHT22;5192;50.328;7.610;2023-04-01T05:36:11;9.40;33.30
10294;DHT22;5192;50.328;7.610;2023-04-01T05:38:38;9.40;33.40
10294;DHT22;5192;50.328;7.610;2023-04-01T05:41:06;9.40;34.60
10294;DHT22;5192;50.328;7.610;2023-04-01T05:43:36;9.30;35.50
10294;DHT22;5192;50.328;7.610;2023-04-01T05:46:03;9.30;35.80
10294;DHT22;5192;50.328;7.610;2023-04-01T05:48:32;9.40;36.60
10294;DHT22;5192;50.328;7.610;2023-04-01T05:50:59;9.40;36.60
10294;DHT22;5192;50.328;7.610;2023-04-01T05:53:27;9.40;36.30
10294;DHT22;5192;50.328;7.610;2023-04-01T05:55:54;9.40;36.90
10294;DHT22;5192;50.328;7.610;2023-04-01T05:58:20;9.40;36.50
10294;DHT22;5192;50.328;7.610;2023-04-01T06:00:47;9.50;36.60
10294;DHT22;5192;50.328;7.610;2023-04-01T06:03:15;9.40;36.50
10294;DHT22;5192;50.328;7.610;2023-04-01T06:05:43;9.40;36.20
10294;DHT22;5192;50.328;7.610;2023-04-01T06:08:18;9.40;35.90
10294;DHT22;5192;50.328;7.610;2023-04-01T06:26:04;9.50;35.30
10294;DHT22;5192;50.328;7.610;2023-04-01T06:54:34;9.70;33.20
10294;DHT22;5192;50.328;7.610;2023-04-01T06:57:13;9.70;33.40
10294;DHT22;5192;50.328;7.610;2023-04-01T06:59:45;9.70;33.10
10294;DHT22;5192;50.328;7.610;2023-04-01T07:02:41;9.80;33.10
10294;DHT22;5192;50.328;7.610;2023-04-01T07:05:12;9.80;32.80
10294;DHT22;5192;50.328;7.610;2023-04-01T07:07:53;9.90;33.00
10294;DHT22;5192;50.328;7.610;2023-04-01T07:10:46;9.80;33.10
10294;DHT22;5192;50.328;7.610;2023-04-01T07:13:47;9.90;32.00
10294;DHT22;5192;50.328;7.610;2023-04-01T07:16:34;9.90;33.10
10294;DHT22;5192;50.328;7.610;2023-04-01T07:19:27;9.90;31.50
10294;DHT22;5192;50.328;7.610;2023-04-01T07:22:27;9.90;31.80
10294;DHT22;5192;50.328;7.610;2023-04-01T07:25:21;10.00;30.50
10294;DHT22;5192;50.328;7.610;2023-04-01T07:27:47;10.00;30.50
10294;DHT22;5192;50.328;7.610;2023-04-01T07:30:21;10.00;31.20
10294;DHT22;5192;50.328;7.610;2023-04-01T07:34:06;10.10;31.50
10294;DHT22;5192;50.328;7.610;2023-04-01T07:43:07;10.30;30.60
10294;DHT22;5192;50.328;7.610;2023-04-01T07:49:04;10.20;31.10
10294;DHT22;5192;50.328;7.610;2023-04-01T07:55:19;10.30;31.80
10294;DHT22;5192;50.328;7.610;2023-04-01T08:01:11;10.40;30.90
10294;DHT22;5192;50.328;7.610;2023-04-01T08:06:26;10.30;32.40
10294;DHT22;5192;50.328;7.610;2023-04-01T08:09:18;10.30;31.90
10294;DHT22;5192;50.328;7.610;2023-04-01T08:17:32;10.40;31.90
10294;DHT22;5192;50.328;7.610;2023-04-01T08:23:22;10.60;33.80
10294;DHT22;5192;50.328;7.610;2023-04-01T08:26:22;10.60;31.70
10294;DHT22;5192;50.328;7.610;2023-04-01T08:29:31;10.60;30.70
10294;DHT22;5192;50.328;7.610;2023-04-01T08:32:22;10.70;30.80
10294;DHT22;5192;50.328;7.610;2023-04-01T08:34:58;10.70;30.40
10294;DHT22;5192;50.328;7.610;2023-04-01T08:37:35;10.80;30.40
10294;DHT22;5192;50.328;7.610;2023-04-01T08:40:55;10.90;29.70
10294;DHT22;5192;50.328;7.610;2023-04-01T08:43:16;11.00;28.20
10294;DHT22;5192;50.328;7.610;2023-04-01T09:06:40;10.70;33.70
10294;DHT22;5192;50.328;7.610;2023-04-01T09:12:41;10.80;35.50
10294;DHT22;5192;50.328;7.610;2023-04-01T09:24:52;10.40;43.30
10294;DHT22;5192;50.328;7.610;2023-04-01T09:27:45;10.60;42.90
10294;DHT22;5192;50.328;7.610;2023-04-01T09:30:47;10.60;43.10
10294;DHT22;5192;50.328;7.610;2023-04-01T09:39:46;10.70;35.00
10294;DHT22;5192;50.328;7.610;2023-04-01T09:48:24;10.90;36.70
10294;DHT22;5192;50.328;7.610;2023-04-01T09:51:25;11.00;33.90
10294;DHT22;5192;50.328;7.610;2023-04-01T10:57:02;10.30;50.60
10294;DHT22;5192;50.328;7.610;2023-04-01T11:21:02;11.00;44.60
10294;DHT22;5192;50.328;7.610;2023-04-01T11:32:32;11.20;37.20
10294;DHT22;5192;50.328;7.610;2023-04-01T11:41:43;11.30;37.10
10294;DHT22;5192;50.328;7.610;2023-04-01T11:44:30;11.30;38.00
10294;DHT22;5192;50.328;7.610;2023-04-01T11:47:41;11.30;37.60
10294;DHT22;5192;50.328;7.610;2023-04-01T11:53:12;11.40;32.20
10294;DHT22;5192;50.328;7.610;2023-04-01T12:02:16;11.60;28.30
10294;DHT22;5192;50.328;7.610;2023-04-01T12:08:01;11.80;27.90
10294;DHT22;5192;50.328;7.610;2023-04-01T12:17:00;11.90;27.40
10294;DHT22;5192;50.328;7.610;2023-04-01T12:20:16;11.80;28.30
10294;DHT22;5192;50.328;7.610;2023-04-01T12:28:23;11.90;21.50
10294;DHT22;5192;50.328;7.610;2023-04-01T12:34:23;12.00;22.00
10294;DHT22;5192;50.328;7.610;2023-04-01T12:40:04;12.10;18.80
10294;DHT22;5192;50.328;7.610;2023-04-01T12:52:03;11.90;24.80
10294;DHT22;5192;50.328;7.610;2023-04-01T13:03:36;11.60;32.20
10294;DHT22;5192;50.328;7.610;2023-04-01T13:06:32;11.50;35.00
10294;DHT22;5192;50.328;7.610;2023-04-01T13:15:23;11.40;50.00
10294;DHT22;5192;50.328;7.610;2023-04-01T13:21:00;11.40;49.80
10294;DHT22;5192;50.328;7.610;2023-04-01T13:26:38;11.40;44.30
10294;DHT22;5192;50.328;7.610;2023-04-01T13:29:32;11.50;51.50
10294;DHT22;5192;50.328;7.610;2023-04-01T13:41:27;11.90;63.10
10294;DHT22;5192;50.328;7.610;2023-04-01T13:52:55;12.50;52.20
10294;DHT22;5192;50.328;7.610;2023-04-01T13:58:49;12.60;36.50
10294;DHT22;5192;50.328;7.610;2023-04-01T14:43:22;13.00;11.80
10294;DHT22;5192;50.328;7.610;2023-04-01T14:46:43;13.20;9.60
10294;DHT22;5192;50.328;7.610;2023-04-01T14:49:41;13.20;18.20
10294;DHT22;5192;50.328;7.610;2023-04-01T14:55:20;14.10;5.00
10294;DHT22;5192;50.328;7.610;2023-04-01T14:58:10;14.50;4.60
10294;DHT22;5192;50.328;7.610;2023-04-01T15:03:57;14.40;12.70
10294;DHT22;5192;50.328;7.610;2023-04-01T15:06:49;14.10;16.70
10294;DHT22;5192;50.328;7.610;2023-04-01T15:09:49;13.80;6.60
10294;DHT22;5192;50.328;7.610;2023-04-01T15:25:00;13.20;10.40
10294;DHT22;5192;50.328;7.610;2023-04-01T15:33:48;13.40;5.20
10294;DHT22;5192;50.328;7.610;2023-04-01T15:48:02;13.00;3.70
10294;DHT22;5192;50.328;7.610;2023-04-01T16:04:55;12.60;10.40
10294;DHT22;5192;50.328;7.610;2023-04-01T16:10:55;12.70;12.80
10294;DHT22;5192;50.328;7.610;2023-04-01T16:13:29;12.70;7.80
10294;DHT22;5192;50.328;7.610;2023-04-01T16:19:30;12.70;12.10
10294;DHT22;5192;50.328;7.610;2023-04-01T16:22:38;12.50;21.60
10294;DHT22;5192;50.328;7.610;2023-04-01T16:25:36;12.40;19.50
10294;DHT22;5192;50.328;7.610;2023-04-01T16:37:13;12.10;11.50
10294;DHT22;5192;50.328;7.610;2023-04-01T16:43:28;12.20;10.60
10294;DHT22;5192;50.328;7.610;2023-04-01T16:52:13;12.20;13.00
10294;DHT22;5192;50.328;7.610;2023-04-01T17:11:35;12.40;12.80
10294;DHT22;5192;50.328;7.610;2023-04-01T17:14:23;12.30;12.50
10294;DHT22;5192;50.328;7.610;2023-04-01T17:17:17;12.40;12.80
10294;DHT22;5192;50.328;7.610;2023-04-01T17:20:05;12.30;10.00
10294;DHT22;5192;50.328;7.610;2023-04-01T17:25:46;12.20;9.90
10294;DHT22;5192;50.328;7.610;2023-04-01T17:37:49;12.00;11.80
10294;DHT22;5192;50.328;7.610;2023-04-01T17:43:32;12.00;14.10
10294;DHT22;5192;50.328;7.610;2023-04-01T17:46:19;11.90;13.10
10294;DHT22;5192;50.328;7.610;2023-04-01T17:49:31;11.90;14.20
10294;DHT22;5192;50.328;7.610;2023-04-01T17:58:18;11.80;15.50
10294;DHT22;5192;50.328;7.610;2023-04-01T18:07:15;11.70;14.80
10294;DHT22;5192;50.328;7.610;2023-04-01T18:13:07;11.60;15.20
10294;DHT22;5192;50.328;7.610;2023-04-01T18:24:47;11.50;15.50
10294;DHT22;5192;50.328;7.610;2023-04-01T18:27:41;11.50;17.30
10294;DHT22;5192;50.328;7.610;2023-04-01T18:30:37;11.50;17.70
10294;DHT22;5192;50.328;7.610;2023-04-01T18:34:15;11.50;17.20
10294;DHT22;5192;50.328;7.610;2023-04-01T18:36:46;11.40;20.10
10294;DHT22;5192;50.328;7.610;2023-04-01T18:39:38;11.30;29.90
10294;DHT22;5192;50.328;7.610;2023-04-01T18:45:23;11.20;40.50
10294;DHT22;5192;50.328;7.610;2023-04-01T18:54:31;11.00;49.70
10294;DHT22;5192;50.328;7.610;2023-04-01T18:57:18;10.80;52.00
10294;DHT22;5192;50.328;7.610;2023-04-01T19:00:04;10.80;54.50
10294;DHT22;5192;50.328;7.610;2023-04-01T19:03:10;10.70;54.50
10294;DHT22;5192;50.328;7.610;2023-04-01T19:05:42;10.60;53.80
10294;DHT22;5192;50.328;7.610;2023-04-01T19:08:39;10.50;54.60
10294;DHT22;5192;50.328;7.610;2023-04-01T19:11:50;10.50;55.40
10294;DHT22;5192;50.328;7.610;2023-04-01T19:26:05;10.40;61.50
10294;DHT22;5192;50.328;7.610;2023-04-01T19:40:07;10.20;63.10
10294;DHT22;5192;50.328;7.610;2023-04-01T19:46:33;10.20;66.40
10294;DHT22;5192;50.328;7.610;2023-04-01T19:57:52;10.10;68.40
10294;DHT22;5192;50.328;7.610;2023-04-01T20:00:49;10.10;67.70
10294;DHT22;5192;50.328;7.610;2023-04-01T20:03:59;10.20;68.20
10294;DHT22;5192;50.328;7.610;2023-04-01T20:14:56;10.10;51.30
10294;DHT22;5192;50.328;7.610;2023-04-01T20:17:42;10.10;54.30
10294;DHT22;5192;50.328;7.610;2023-04-01T20:22:57;10.10;47.10
10294;DHT22;5192;50.328;7.610;2023-04-01T20:25:57;10.10;44.70
10294;DHT22;5192;50.328;7.610;2023-04-01T20:28:47;10.10;40.40
10294;DHT22;5192;50.328;7.610;2023-04-01T20:31:36;10.10;37.70
10294;DHT22;5192;50.328;7.610;2023-04-01T20:34:31;10.10;36.20
10294;DHT22;5192;50.328;7.610;2023-04-01T20:37:49;10.10;36.00
10294;DHT22;5192;50.328;7.610;2023-04-01T20:40:46;10.10;34.60
10294;DHT22;5192;50.328;7.610;2023-04-01T20:52:41;10.10;32.20
10294;DHT22;5192;50.328;7.610;2023-04-01T21:04:17;10.10;33.10
10294;DHT22;5192;50.328;7.610;2023-04-01T21:19:02;10.10;32.10
10294;DHT22;5192;50.328;7.610;2023-04-01T21:24:57;10.10;32.70
10294;DHT22;5192;50.328;7.610;2023-04-01T21:27:54;10.10;32.60
10294;DHT22;5192;50.328;7.610;2023-04-01T21:30:47;10.10;32.00
10294;DHT22;5192;50.328;7.610;2023-04-01T21:54:46;9.90;31.40
10294;DHT22;5192;50.328;7.610;2023-04-01T22:00:46;9.90;29.10
10294;DHT22;5192;50.328;7.610;2023-04-01T22:06:17;9.80;29.60
10294;DHT22;5192;50.328;7.610;2023-04-01T22:12:02;9.80;27.60
10294;DHT22;5192;50.328;7.610;2023-04-01T22:17:53;9.80;30.00
10294;DHT22;5192;50.328;7.610;2023-04-01T22:20:39;9.70;28.10
10294;DHT22;5192;50.328;7.610;2023-04-01T22:23:30;9.70;28.90
10294;DHT22;5192;50.328;7.610;2023-04-01T22:29:30;9.70;29.80
10294;DHT22;5192;50.328;7.610;2023-04-01T22:32:31;9.70;31.60
10294;DHT22;5192;50.328;7.610;2023-04-01T22:38:27;9.70;31.00
10294;DHT22;5192;50.328;7.610;2023-04-01T22:43:56;9.50;32.70
10294;DHT22;5192;50.328;7.610;2023-04-01T22:46:44;9.50;33.90
10294;DHT22;5192;50.328;7.610;2023-04-01T22:49:29;9.50;33.40
10294;DHT22;5192;50.328;7.610;2023-04-01T22:55:34;9.50;36.60
10294;DHT22;5192;50.328;7.610;2023-04-01T22:58:24;9.50;36.60
10294;DHT22;5192;50.328;7.610;2023-04-01T23:01:20;9.50;37.90
10294;DHT22;5192;50.328;7.610;2023-04-01T23:03:48;9.50;38.40
10294;DHT22;5192;50.328;7.610;2023-04-01T23:06:29;9.50;38.20
10294;DHT22;5192;50.328;7.610;2023-04-01T23:11:59;9.40;35.50
10294;DHT22;5192;50.328;7.610;2023-04-01T23:26:10;9.40;46.20
10294;DHT22;5192;50.328;7.610;2023-04-01T23:28:53;9.40;47.50
10294;DHT22;5192;50.328;7.610;2023-04-01T23:31:41;9.30;49.60
10294;DHT22;5192;50.328;7.610;2023-04-01T23:34:35;9.30;52.80
10294;DHT22;5192;50.328;7.610;2023-04-01T23:37:10;9.20;55.30
10294;DHT22;5192;50.328;7.610;2023-04-01T23:39:57;9.20;57.00
10294;DHT22;5192;50.328;7.610;2023-04-01T23:42:32;9.00;51.00
10294;DHT22;5192;50.328;7.610;2023-04-01T23:45:05;9.10;54.30
10294;DHT22;5192;50.328;7.610;2023-04-01T23:47:40;9.00;58.60
10294;DHT22;5192;50.328;7.610;2023-04-01T23:50:22;9.00;61.10
10294;DHT22;5192;50.328;7.610;2023-04-01T23:53:00;8.90;62.30
10294;DHT22;5192;50.328;7.610;2023-04-01T23:55:33;8.90;64.60
10294;DHT22;5192;50.328;7.610;2023-04-01T23:58:13;8.90;65.90
